createdAt,value
2023-03-15T00:04:48.871Z,88.45
2023-03-15T00:09:51.161Z,88.51
2023-03-15T00:14:53.036Z,88.51
2023-03-15T00:19:55.321Z,88.55
2023-03-15T00:24:57.067Z,88.63
2023-03-15T00:29:59.381Z,88.67
2023-03-15T00:35:01.388Z,88.63
2023-03-15T00:40:04.420Z,88.97
2023-03-15T00:45:07.574Z,89.00
2023-03-15T00:50:09.463Z,89.13
2023-03-15T00:55:13.580Z,89.24
2023-03-15T01:00:24.104Z,89.02
2023-03-15T01:05:26.342Z,89.04
2023-03-15T01:10:28.427Z,89.05
2023-03-15T01:15:30.427Z,89.09
2023-03-15T01:20:33.004Z,89.23
2023-03-15T01:25:34.772Z,89.35
2023-03-15T01:30:36.750Z,89.34
2023-03-15T01:35:38.662Z,89.39
2023-03-15T01:40:45.320Z,88.94
2023-03-15T01:45:58.970Z,88.88
2023-03-15T01:51:11.603Z,88.75
2023-03-15T01:56:14.804Z,87.66
2023-03-15T02:01:16.952Z,87.71
2023-03-15T02:06:20.551Z,88.18
2023-03-15T02:11:25.726Z,87.89
2023-03-15T02:16:29.330Z,88.27
2023-03-15T02:21:56.757Z,88.88
2023-03-15T02:26:58.575Z,88.84
2023-03-15T02:32:04.163Z,88.73
2023-03-15T02:37:06.285Z,88.68
2023-03-15T02:42:08.566Z,88.50
2023-03-15T02:47:18.634Z,88.70
2023-03-15T02:52:21.855Z,89.03
2023-03-15T02:57:23.626Z,89.42
2023-03-15T03:02:25.639Z,89.93
2023-03-15T03:07:27.582Z,89.97
2023-03-15T03:12:29.455Z,90.05
2023-03-15T03:17:31.230Z,89.56
2023-03-15T03:22:34.854Z,89.15
2023-03-15T03:27:36.826Z,89.73
2023-03-15T03:32:40.771Z,89.61
2023-03-15T03:37:42.728Z,89.68
2023-03-15T03:42:44.662Z,89.84
2023-03-15T03:47:47.601Z,90.07
2023-03-15T03:52:49.685Z,90.18
2023-03-15T03:57:54.732Z,90.46
2023-03-15T04:02:57.027Z,90.53
2023-03-15T04:07:58.895Z,90.69
2023-03-15T04:13:01.388Z,90.35
2023-03-15T04:18:05.428Z,90.39
2023-03-15T04:23:07.699Z,90.28
2023-03-15T04:28:12.524Z,90.38
2023-03-15T04:33:14.434Z,90.18
2023-03-15T04:38:16.307Z,90.26
2023-03-15T04:43:18.086Z,90.28
2023-03-15T04:48:19.867Z,90.23
2023-03-15T04:53:22.041Z,90.10
2023-03-15T04:58:23.923Z,90.11
2023-03-15T05:03:25.696Z,90.15
2023-03-15T05:08:27.418Z,90.23
2023-03-15T05:13:29.660Z,90.48
2023-03-15T05:18:31.533Z,90.88
2023-03-15T05:23:33.717Z,91.11
2023-03-15T05:28:35.484Z,91.17
2023-03-15T05:33:37.161Z,91.33
2023-03-15T05:38:39.031Z,91.05
2023-03-15T05:43:40.706Z,90.47
2023-03-15T05:48:42.378Z,90.18
2023-03-15T05:53:46.010Z,90.20
2023-03-15T05:58:48.280Z,90.17
2023-03-15T06:03:50.130Z,89.90
2023-03-15T06:08:51.926Z,89.72
2023-03-15T06:13:53.745Z,89.59
2023-03-15T06:18:55.477Z,89.34
2023-03-15T06:23:57.670Z,89.08
2023-03-15T06:28:59.532Z,88.72
2023-03-15T06:34:02.751Z,88.26
2023-03-15T06:39:05.305Z,88.03
2023-03-15T06:44:08.854Z,87.85
2023-03-15T06:49:10.843Z,87.71
2023-03-15T06:54:13.324Z,87.28
2023-03-15T06:59:15.421Z,86.65
2023-03-15T07:04:17.598Z,85.15
2023-03-15T07:09:20.082Z,83.25
2023-03-15T07:14:22.173Z,83.23
2023-03-15T07:19:23.836Z,83.20
2023-03-15T07:24:26.945Z,82.86
2023-03-15T07:29:28.718Z,82.65
2023-03-15T07:34:30.820Z,82.67
2023-03-15T07:39:33.800Z,81.45
2023-03-15T07:44:35.881Z,81.65
2023-03-15T07:49:38.176Z,81.38
2023-03-15T07:54:40.454Z,79.42
2023-03-15T07:59:42.434Z,77.83
2023-03-15T08:04:44.512Z,77.97
2023-03-15T08:09:46.293Z,78.43
2023-03-15T08:14:48.065Z,77.53
2023-03-15T08:19:49.835Z,77.51
2023-03-15T08:24:52.807Z,76.03
2023-03-15T08:29:54.850Z,74.14
2023-03-15T08:34:56.649Z,74.69
2023-03-15T08:40:05.307Z,74.31
2023-03-15T08:45:09.767Z,74.32
2023-03-15T08:50:16.554Z,73.24
2023-03-15T08:55:19.252Z,73.40
2023-03-15T09:00:22.244Z,72.86
2023-03-15T09:05:26.080Z,71.44
2023-03-15T09:10:28.054Z,68.46
2023-03-15T09:15:30.140Z,68.39
2023-03-15T09:20:31.933Z,68.67
2023-03-15T09:25:33.790Z,69.34
2023-03-15T09:30:37.875Z,68.71
2023-03-15T09:35:41.347Z,67.76
2023-03-15T09:40:45.661Z,64.40
2023-03-15T09:46:11.562Z,65.86
2023-03-15T09:51:24.651Z,67.49
2023-03-15T09:56:55.412Z,67.51
2023-03-15T10:02:01.616Z,67.12
2023-03-15T10:07:05.919Z,67.63
2023-03-15T10:12:27.150Z,68.22
2023-03-15T10:17:59.856Z,67.65
2023-03-15T10:23:09.917Z,67.83
2023-03-15T10:28:25.534Z,66.99
2023-03-15T10:33:37.733Z,65.72
2023-03-15T10:38:41.344Z,63.30
2023-03-15T10:43:58.072Z,62.74
2023-03-15T10:49:11.623Z,63.05
2023-03-15T10:54:18.928Z,63.32
2023-03-15T10:59:24.383Z,63.79
2023-03-15T11:04:27.390Z,63.02
2023-03-15T11:09:44.317Z,63.99
2023-03-15T11:14:48.445Z,63.61
2023-03-15T11:19:59.423Z,63.94
2023-03-15T11:25:01.648Z,65.00
2023-03-15T11:30:05.615Z,63.89
2023-03-15T11:35:15.110Z,63.95
2023-03-15T11:40:53.432Z,65.05
2023-03-15T11:46:13.544Z,65.31
2023-03-15T11:51:16.955Z,64.35
2023-03-15T11:56:38.692Z,64.58
2023-03-15T12:02:21.051Z,64.93
2023-03-15T12:07:28.331Z,62.68
2023-03-15T12:12:30.411Z,62.41
2023-03-15T12:17:49.591Z,63.21
2023-03-15T12:22:53.825Z,62.55
2023-03-15T12:27:58.357Z,64.28
2023-03-15T12:33:02.975Z,64.80
2023-03-15T12:38:16.853Z,66.08
2023-03-15T12:43:44.537Z,66.57
2023-03-15T12:49:11.914Z,67.13
2023-03-15T12:54:16.856Z,67.97
2023-03-15T12:59:54.696Z,68.85
2023-03-15T13:05:28.934Z,69.51
2023-03-15T13:11:05.196Z,70.43
2023-03-15T13:16:19.417Z,71.30
2023-03-15T13:21:31.988Z,71.99
2023-03-15T13:26:50.565Z,72.45
2023-03-15T13:32:12.204Z,73.23
2023-03-15T13:37:25.057Z,73.24
2023-03-15T13:42:27.425Z,73.80
2023-03-15T13:47:29.399Z,75.26
2023-03-15T13:52:31.688Z,75.76
2023-03-15T13:57:35.199Z,75.16
2023-03-15T14:02:42.953Z,75.25
2023-03-15T14:07:49.311Z,76.15
2023-03-15T14:12:52.492Z,76.82
2023-03-15T14:17:59.303Z,76.77
2023-03-15T14:23:04.350Z,76.27
2023-03-15T14:28:06.494Z,75.86
2023-03-15T14:33:32.281Z,74.96
2023-03-15T14:38:39.502Z,74.25
2023-03-15T14:43:41.349Z,74.41
2023-03-15T14:48:44.150Z,73.70
2023-03-15T14:53:48.590Z,72.96
2023-03-15T14:58:53.533Z,72.41
2023-03-15T15:04:02.890Z,72.03
2023-03-15T15:09:06.440Z,71.67
2023-03-15T15:14:15.187Z,72.39
2023-03-15T15:19:17.117Z,72.87
2023-03-15T15:24:22.780Z,73.66
2023-03-15T15:29:24.966Z,73.74
2023-03-15T15:34:26.741Z,74.26
2023-03-15T15:39:29.240Z,75.56
2023-03-15T15:44:31.009Z,76.87
2023-03-15T15:49:33.185Z,78.09
2023-03-15T15:54:35.951Z,78.70
2023-03-15T15:59:38.028Z,78.57
2023-03-15T16:04:42.238Z,79.09
2023-03-15T16:09:48.746Z,79.92
2023-03-15T16:14:51.989Z,81.22
2023-03-15T16:19:55.304Z,81.92
2023-03-15T16:25:01.496Z,82.39
2023-03-15T16:30:09.946Z,83.00
2023-03-15T16:35:16.283Z,82.99
2023-03-15T16:40:27.378Z,83.64
2023-03-15T16:45:29.884Z,84.50
2023-03-15T16:50:32.993Z,84.49
2023-03-15T16:55:36.170Z,84.89
2023-03-15T17:00:44.601Z,86.26
2023-03-15T17:05:49.262Z,86.63
2023-03-15T17:10:51.852Z,87.33
2023-03-15T17:15:54.064Z,87.40
2023-03-15T17:20:56.328Z,87.09
2023-03-15T17:25:58.412Z,87.05
2023-03-15T17:31:20.258Z,87.52
2023-03-15T17:36:25.412Z,88.36
2023-03-15T17:41:36.809Z,88.90
2023-03-15T17:46:38.760Z,88.82
2023-03-15T17:51:41.102Z,88.57
2023-03-15T17:56:43.484Z,88.32
2023-03-15T18:01:48.311Z,87.90
2023-03-15T18:06:50.290Z,87.77
2023-03-15T18:11:52.278Z,87.75
2023-03-15T18:16:54.123Z,87.72
2023-03-15T18:21:56.437Z,87.66
2023-03-15T18:27:00.252Z,87.68
2023-03-15T18:32:03.088Z,87.85
2023-03-15T18:37:05.440Z,87.85
2023-03-15T18:42:08.746Z,87.82
2023-03-15T18:47:10.845Z,87.81
2023-03-15T18:52:16.162Z,87.74
2023-03-15T18:57:20.608Z,87.89
2023-03-15T19:02:23.046Z,87.96
2023-03-15T19:07:27.455Z,87.96
2023-03-15T19:12:29.536Z,87.99
2023-03-15T19:17:31.305Z,88.03
2023-03-15T19:22:33.901Z,87.98
2023-03-15T19:27:37.742Z,88.07
2023-03-15T19:32:42.641Z,88.21
2023-03-15T19:37:46.188Z,88.36
2023-03-15T19:42:49.301Z,88.33
2023-03-15T19:47:51.172Z,88.34
2023-03-15T19:52:53.150Z,88.39
2023-03-15T19:57:55.436Z,88.78
2023-03-15T20:02:58.032Z,88.81
2023-03-15T20:08:01.761Z,88.87
2023-03-15T20:13:05.267Z,88.88
2023-03-15T20:18:10.315Z,88.98
2023-03-15T20:23:13.035Z,88.98
2023-03-15T20:28:18.297Z,88.98
2023-03-15T20:33:20.666Z,89.15
2023-03-15T20:38:23.058Z,89.40
2023-03-15T20:43:26.592Z,89.57
2023-03-15T20:48:30.822Z,89.59
2023-03-15T20:53:35.286Z,89.58
2023-03-15T20:58:37.105Z,89.52
2023-03-15T21:03:39.318Z,89.48
2023-03-15T21:08:43.422Z,89.50
2023-03-15T21:13:46.434Z,89.52
2023-03-15T21:18:51.380Z,89.53
2023-03-15T21:23:53.983Z,89.60
2023-03-15T21:28:56.352Z,89.81
2023-03-15T21:33:58.227Z,89.87
2023-03-15T21:39:01.134Z,89.95
2023-03-15T21:44:05.351Z,90.03
2023-03-15T21:49:08.251Z,90.01
2023-03-15T21:54:10.748Z,89.95
2023-03-15T21:59:14.360Z,89.92
2023-03-15T22:04:16.923Z,90.22
2023-03-15T22:09:20.444Z,90.28
2023-03-15T22:14:23.681Z,90.34
2023-03-15T22:19:25.765Z,90.44
2023-03-15T22:24:27.755Z,90.45
2023-03-15T22:29:29.622Z,90.51
2023-03-15T22:34:33.712Z,90.57
2023-03-15T22:39:35.936Z,90.61
2023-03-15T22:44:37.622Z,90.78
2023-03-15T22:49:39.531Z,90.83
2023-03-15T22:54:43.105Z,90.78
2023-03-15T22:59:44.781Z,90.76
2023-03-15T23:04:46.581Z,90.71
2023-03-15T23:09:48.431Z,90.70
2023-03-15T23:14:51.436Z,90.75
2023-03-15T23:19:53.312Z,90.81
2023-03-15T23:24:57.546Z,90.89
2023-03-15T23:29:59.529Z,91.05
2023-03-15T23:35:06.877Z,91.04
2023-03-15T23:40:14.968Z,91.06
2023-03-15T23:45:16.834Z,91.06
2023-03-15T23:50:19.121Z,90.98
2023-03-15T23:55:22.123Z,90.96
